Time;durP1;ratioP1;P1;durP2;ratioP2;P2;SDS_P1;SDS_P2;PMS_P1;PMS_P2;Temp;Humidity;BMP_temperature;BMP_pressure;BME280_temperature;BME280_humidity;BME280_pressure;Samples;Min_cycle;Max_cycle;Signal;HPM_P1;HPM_P2
2021/12/13 00:01:59;;;;;;;;;18.50;17.50;;;;;9.96;85.63;101872.72;4981893;28;45355;-84
2021/12/13 00:04:33;;;;;;;;;23.25;21.25;;;;;9.94;85.51;101870.06;5009730;28;45516;-78
2021/12/13 00:07:07;;;;;;;;;21.50;20.50;;;;;9.95;85.23;101868.28;5015008;28;45573;-78
2021/12/13 00:09:40;;;;;;;;;22.75;17.50;;;;;9.95;85.38;101855.09;5015343;28;45316;-78
2021/12/13 00:12:07;;;;;;;;;13.00;10.00;;;;;9.90;85.17;101849.78;5015673;28;45407;-77
2021/12/13 00:14:46;;;;;;;;;22.50;17.25;;;;;9.93;85.11;101855.09;5015704;28;45384;-77
2021/12/13 00:17:23;;;;;;;;;16.50;15.25;;;;;9.94;85.16;101862.13;5015550;28;45423;-78
2021/12/13 00:20:04;;;;;;;;;22.00;18.00;;;;;9.95;85.03;101855.09;5014693;28;45361;-79
2021/12/13 00:22:37;;;;;;;;;16.00;12.50;;;;;9.95;85.06;101849.81;4996377;28;45467;-79
2021/12/13 00:25:17;;;;;;;;;12.50;12.00;;;;;9.94;85.03;101848.03;5014874;28;45470;-77
2021/12/13 00:27:48;;;;;;;;;16.00;13.50;;;;;9.90;84.97;101851.53;5015008;28;46198;-78
2021/12/13 00:30:19;;;;;;;;;16.25;16.00;;;;;9.90;85.05;101839.22;4995273;28;45393;-79
2021/12/13 00:33:26;;;;;;;;;15.75;13.00;;;;;9.91;84.95;101837.47;4995660;28;45402;-79
2021/12/13 00:36:06;;;;;;;;;17.00;15.75;;;;;9.87;85.20;101835.69;4923006;28;45489;-79
2021/12/13 00:38:40;;;;;;;;;21.00;14.00;;;;;9.89;85.02;101841.88;4933649;28;46404;-79
2021/12/13 00:41:12;;;;;;;;;19.50;17.50;;;;;9.88;85.43;101834.81;4937568;28;45520;-78
2021/12/13 00:43:51;;;;;;;;;17.75;14.50;;;;;9.88;85.72;101832.16;4937476;28;45542;-78
2021/12/13 00:46:19;;;;;;;;;14.25;13.25;;;;;9.88;85.40;101832.16;4937136;28;45490;-80
2021/12/13 00:48:48;;;;;;;;;13.25;10.50;;;;;9.87;85.24;101830.41;4937448;28;46189;-77
2021/12/13 00:51:25;;;;;;;;;18.25;14.50;;;;;9.83;85.17;101824.22;4938265;28;45388;-78
2021/12/13 00:53:53;;;;;;;;;17.25;15.25;;;;;9.85;85.08;101834.81;4918241;28;45494;-78
2021/12/13 00:56:56;;;;;;;;;18.50;15.50;;;;;9.83;85.09;101833.94;4918760;28;45656;-77
2021/12/13 00:59:40;;;;;;;;;17.75;11.00;;;;;9.85;85.22;101837.44;4925940;28;46088;-76
2021/12/13 01:02:08;;;;;;;;;17.25;14.00;;;;;9.84;85.05;101835.66;4921487;28;45820;-77
2021/12/13 01:04:55;;;;;;;;;11.75;9.25;;;;;9.85;85.30;101842.72;4930189;28;45578;-77
2021/12/13 01:07:32;;;;;;;;;13.00;11.50;;;;;9.83;85.38;101844.50;4936637;28;45618;-77
2021/12/13 01:10:35;;;;;;;;;14.75;14.75;;;;;9.82;85.56;101838.31;4972702;28;45404;-78
2021/12/13 01:13:04;;;;;;;;;12.50;12.25;;;;;9.77;85.36;101843.56;4997977;28;45329;-78
2021/12/13 01:15:40;;;;;;;;;14.75;13.00;;;;;9.78;85.61;101847.13;4997461;28;45515;-78
2021/12/13 01:18:32;;;;;;;;;22.25;17.25;;;;;9.78;85.73;101845.34;4998281;28;45392;-77
2021/12/13 01:21:17;;;;;;;;;19.50;15.00;;;;;9.77;85.53;101835.66;5000893;28;48090;-77
2021/12/13 01:23:52;;;;;;;;;21.75;18.00;;;;;9.74;85.87;101829.50;5013665;28;45466;-77
2021/12/13 01:26:37;;;;;;;;;18.50;16.50;;;;;9.72;85.85;101824.22;5017513;28;45409;-79
2021/12/13 01:29:09;;;;;;;;;14.50;14.50;;;;;9.69;85.83;101829.47;5015187;28;45475;-78
2021/12/13 01:31:45;;;;;;;;;18.00;14.50;;;;;9.70;86.01;101828.59;4998862;28;47575;-78
2021/12/13 01:34:13;;;;;;;;;17.25;15.50;;;;;9.68;86.16;101835.63;5017390;28;45400;-78
2021/12/13 01:36:47;;;;;;;;;21.50;17.00;;;;;9.72;86.33;101834.75;4999962;28;46210;-78
2021/12/13 01:39:20;;;;;;;;;24.75;15.00;;;;;9.64;86.10;101823.31;5004854;28;45533;-77
2021/12/13 01:41:52;;;;;;;;;17.00;13.25;;;;;9.71;86.07;101835.63;4997202;28;46403;-78
2021/12/13 01:44:24;;;;;;;;;8.25;5.25;;;;;9.69;86.15;101840.03;4979986;28;45926;-77
2021/12/13 01:46:58;;;;;;;;;17.00;15.00;;;;;9.68;86.10;101840.91;4998301;28;45513;-78
2021/12/13 01:49:35;;;;;;;;;16.75;16.75;;;;;9.69;86.33;101845.31;4997981;28;45512;-77
2021/12/13 01:52:03;;;;;;;;;16.50;14.50;;;;;9.70;86.15;101847.09;4997300;28;46053;-77
2021/12/13 01:54:29;;;;;;;;;15.25;11.50;;;;;9.71;86.16;101846.19;5009871;28;45514;-78
2021/12/13 01:57:22;;;;;;;;;16.00;11.50;;;;;9.68;86.16;101840.03;5017506;28;45373;-77
2021/12/13 01:59:55;;;;;;;;;15.25;14.50;;;;;9.70;86.07;101841.81;5016879;28;45408;-77
2021/12/13 02:02:32;;;;;;;;;17.50;14.50;;;;;9.69;86.11;101834.75;5016300;28;45706;-77
2021/12/13 02:04:58;;;;;;;;;20.75;13.00;;;;;9.67;86.25;101839.16;5015995;28;45448;-76
2021/12/13 02:07:27;;;;;;;;;16.25;15.75;;;;;9.64;86.41;101839.16;5013039;28;45441;-77
2021/12/13 02:09:56;;;;;;;;;16.50;13.00;;;;;9.64;86.44;101835.59;5017131;28;45371;-76
2021/12/13 02:12:30;;;;;;;;;18.50;15.75;;;;;9.62;86.59;101835.59;5016886;28;45419;-77
2021/12/13 02:17:46;;;;;;;;;21.00;14.00;;;;;9.60;87.03;101850.56;4996736;28;45405;-77
2021/12/13 02:20:36;;;;;;;;;15.25;13.75;;;;;9.61;86.98;101847.06;5007518;28;45424;-76
2021/12/13 02:23:05;;;;;;;;;31.75;23.50;;;;;9.60;86.95;101859.34;5006944;28;46583;-77
2021/12/13 02:25:35;;;;;;;;;26.75;21.50;;;;;9.60;87.35;101859.34;5016763;28;45336;-78
2021/12/13 02:28:14;;;;;;;;;22.50;16.50;;;;;9.57;86.95;101851.41;5015272;28;45499;-78
2021/12/13 02:30:45;;;;;;;;;30.50;24.50;;;;;9.57;87.13;101863.75;4996442;28;45386;-77
2021/12/13 02:33:15;;;;;;;;;22.50;20.25;;;;;9.57;86.92;101858.47;4998389;28;46117;-77
2021/12/13 02:35:46;;;;;;;;;20.50;16.00;;;;;9.56;87.12;101857.56;5015845;28;45472;-77
2021/12/13 02:38:13;;;;;;;;;22.75;18.00;;;;;9.53;87.43;101851.41;5016334;28;45467;-76
2021/12/13 02:40:39;;;;;;;;;19.50;16.75;;;;;9.51;87.38;101848.75;4998533;28;45666;-78
2021/12/13 02:43:07;;;;;;;;;22.75;20.50;;;;;9.50;87.27;101846.97;4997731;28;46460;-78
2021/12/13 02:45:42;;;;;;;;;22.25;21.75;;;;;9.51;87.11;101842.59;5015728;28;45380;-77
2021/12/13 02:48:29;;;;;;;;;21.50;16.50;;;;;9.51;87.01;101842.59;5016287;28;45482;-76
2021/12/13 02:51:01;;;;;;;;;18.50;15.25;;;;;9.51;87.24;101845.25;5016603;28;45451;-76
2021/12/13 02:53:35;;;;;;;;;24.25;16.25;;;;;9.49;87.44;101839.06;5015466;28;46371;-77
2021/12/13 02:56:01;;;;;;;;;19.25;18.00;;;;;9.53;87.60;101847.00;4994551;28;45532;-77
2021/12/13 02:58:28;;;;;;;;;25.25;20.25;;;;;9.54;87.27;101835.56;5004471;28;45345;-76
2021/12/13 03:01:04;;;;;;;;;18.00;15.50;;;;;9.56;86.95;101843.50;5014691;28;45494;-76
2021/12/13 03:03:34;;;;;;;;;15.00;13.00;;;;;9.52;87.09;101833.78;5015420;28;45404;-78
2021/12/13 03:06:04;;;;;;;;;22.25;17.50;;;;;9.52;87.12;101844.34;5015941;28;45429;-78
2021/12/13 03:08:40;;;;;;;;;23.25;17.50;;;;;9.46;86.68;101829.38;5011575;28;45498;-77
2021/12/13 03:11:23;;;;;;;;;21.75;15.75;;;;;9.52;87.07;101839.06;4995939;28;45390;-77
2021/12/13 03:13:55;;;;;;;;;16.00;12.00;;;;;9.47;86.76;101840.81;4992958;28;47208;-77
2021/12/13 03:16:27;;;;;;;;;22.75;17.00;;;;;9.52;87.13;101844.34;4994936;28;45456;-76
2021/12/13 03:19:03;;;;;;;;;13.50;10.00;;;;;9.50;86.97;101832.91;4995767;28;45472;-77
2021/12/13 03:21:56;;;;;;;;;17.25;13.25;;;;;9.48;87.21;101834.69;5016146;28;45443;-76
2021/12/13 03:24:34;;;;;;;;;8.00;8.00;;;;;9.46;87.05;101845.22;4997668;28;45994;-76
2021/12/13 03:27:56;;;;;;;;;19.00;14.75;;;;;9.47;87.55;101840.81;5016215;28;45432;-77
2021/12/13 03:30:27;;;;;;;;;14.00;10.00;;;;;9.44;86.82;101831.13;4953740;28;45552;-77
2021/12/13 03:33:03;;;;;;;;;17.25;11.75;;;;;9.45;86.71;101827.63;4954006;28;45601;-77
2021/12/13 03:35:38;;;;;;;;;19.50;13.00;;;;;9.43;86.96;101832.88;4934777;28;45431;-78
2021/12/13 03:38:10;;;;;;;;;24.25;15.50;;;;;9.43;87.35;101830.25;4944730;28;45615;-76
2021/12/13 03:40:37;;;;;;;;;16.75;14.75;;;;;9.41;86.99;101824.09;4953781;28;45386;-77
2021/12/13 03:43:15;;;;;;;;;25.25;16.00;;;;;9.37;86.73;101824.06;4935711;28;45365;-77
2021/12/13 03:45:53;;;;;;;;;21.50;14.75;;;;;9.38;87.35;101826.72;4935143;28;46060;-77
2021/12/13 03:48:23;;;;;;;;;22.00;14.50;;;;;9.34;86.98;101822.28;4926144;28;45532;-77
2021/12/13 03:50:54;;;;;;;;;17.75;16.00;;;;;9.35;87.21;101824.06;4953631;28;45532;-76
2021/12/13 03:53:25;;;;;;;;;23.50;16.75;;;;;9.34;87.24;101817.00;4953662;28;45529;-77
2021/12/13 03:55:56;;;;;;;;;17.75;14.50;;;;;9.34;86.92;101814.38;4955763;28;45532;-77
2021/12/13 03:58:23;;;;;;;;;20.25;16.00;;;;;9.30;87.01;101807.31;4954640;28;45537;-78
2021/12/13 04:00:57;;;;;;;;;17.75;13.25;;;;;9.30;87.21;101802.03;4966223;28;45564;-78
2021/12/13 04:03:27;;;;;;;;;11.25;11.25;;;;;9.32;87.49;101804.69;5016188;28;45332;-78
2021/12/13 04:05:55;;;;;;;;;19.50;16.00;;;;;9.30;87.37;101802.03;5014770;28;45360;-77
2021/12/13 04:08:22;;;;;;;;;15.75;13.50;;;;;9.32;87.28;101805.59;5015850;28;45559;-76
2021/12/13 04:10:52;;;;;;;;;17.75;12.50;;;;;9.31;86.41;101811.72;5014592;28;45435;-76
2021/12/13 04:13:21;;;;;;;;;18.75;12.25;;;;;9.33;86.38;101815.25;5009814;28;45455;-77
2021/12/13 04:21:32;;;;;;;;;13.50;10.00;;;;;9.34;86.71;101817.00;5013155;28;45631;-78
2021/12/13 04:24:02;;;;;;;;;8.00;8.00;;;;;9.32;86.60;101812.59;5014867;28;45432;-78
2021/12/13 04:26:29;;;;;;;;;9.75;9.75;;;;;9.30;86.30;101811.72;5014948;28;46184;-77
2021/12/13 04:28:58;;;;;;;;;17.75;11.00;;;;;9.33;86.51;101812.59;5005095;28;45439;-77
2021/12/13 04:31:30;;;;;;;;;14.00;10.00;;;;;9.33;86.42;101817.88;5006048;28;45364;-77
2021/12/13 04:34:02;;;;;;;;;11.50;10.00;;;;;9.30;86.74;101812.59;4996687;28;45432;-77
2021/12/13 04:36:48;;;;;;;;;15.00;13.50;;;;;9.35;86.26;101815.25;5013909;28;45376;-77
2021/12/13 04:39:18;;;;;;;;;22.25;15.00;;;;;9.34;86.24;101817.00;5013889;28;45356;-76
2021/12/13 04:41:54;;;;;;;;;13.00;9.50;;;;;9.34;85.98;101817.00;5014661;28;45510;-77
2021/12/13 04:44:33;;;;;;;;;15.00;10.75;;;;;9.36;85.97;101825.81;5014400;28;45479;-76
2021/12/13 04:47:07;;;;;;;;;13.75;13.75;;;;;9.36;85.84;101815.25;5012843;28;45445;-76
2021/12/13 04:49:35;;;;;;;;;12.50;8.00;;;;;9.32;85.78;101816.13;5013017;28;45412;-78
2021/12/13 04:52:06;;;;;;;;;14.75;9.50;;;;;9.36;85.68;101825.81;5014422;28;45328;-77
2021/12/13 04:54:35;;;;;;;;;12.50;9.50;;;;;9.36;85.90;101823.16;5015161;28;45513;-79
2021/12/13 04:57:03;;;;;;;;;13.50;9.50;;;;;9.33;85.46;101817.88;5013753;28;45963;-77
2021/12/13 04:59:29;;;;;;;;;13.50;8.50;;;;;9.33;85.14;101831.06;4998286;28;45519;-76
2021/12/13 05:01:59;;;;;;;;;2.25;1.25;;;;;9.33;85.71;101827.56;4996912;28;45484;-77
2021/12/13 05:04:29;;;;;;;;;7.25;7.25;;;;;9.29;85.09;101818.72;5014684;28;45428;-76
2021/12/13 05:06:55;;;;;;;;;8.75;8.00;;;;;9.33;85.12;101827.56;4995868;28;45565;-77
2021/12/13 05:09:23;;;;;;;;;10.25;8.50;;;;;9.32;85.23;101821.41;5014578;28;45400;-77
2021/12/13 05:12:15;;;;;;;;;10.25;7.75;;;;;9.34;85.38;101829.34;5013054;28;45451;-77
2021/12/13 05:14:51;;;;;;;;;10.50;10.00;;;;;9.32;85.17;101834.59;5013640;28;45392;-78
2021/12/13 05:17:24;;;;;;;;;9.25;7.75;;;;;9.32;85.13;101837.25;5013498;28;46382;-78
2021/12/13 05:20:07;;;;;;;;;7.00;5.75;;;;;9.26;84.48;101831.91;5013930;28;45473;-78
2021/12/13 05:22:42;;;;;;;;;10.25;9.25;;;;;9.22;84.87;101845.97;4997502;28;45498;-77
2021/12/13 05:25:08;;;;;;;;;5.25;5.25;;;;;9.18;84.42;101833.63;5015153;28;45472;-78
2021/12/13 05:27:39;;;;;;;;;9.25;6.75;;;;;9.16;84.54;101840.66;5016987;28;46115;-77
2021/12/13 05:30:18;;;;;;;;;8.75;4.75;;;;;9.13;84.74;101836.25;4982033;28;45549;-77
2021/12/13 05:32:48;;;;;;;;;7.00;7.00;;;;;9.10;84.95;101843.28;5000060;28;45381;-77
2021/12/13 05:35:26;;;;;;;;;7.50;7.50;;;;;9.12;84.92;101841.50;5000117;28;45797;-78
2021/12/13 05:37:58;;;;;;;;;6.25;5.00;;;;;9.07;84.73;101830.94;5016941;28;45451;-78
2021/12/13 05:40:45;;;;;;;;;9.50;4.50;;;;;9.08;85.04;101838.00;5014586;28;45736;-78
2021/12/13 05:43:13;;;;;;;;;9.00;4.50;;;;;9.07;85.00;101836.22;5020820;28;45932;-77
2021/12/13 05:45:45;;;;;;;;;6.50;4.75;;;;;9.04;84.78;101837.06;5014720;28;45494;-78
2021/12/13 05:48:18;;;;;;;;;4.50;4.00;;;;;9.03;85.01;101843.22;5016611;28;46286;-77
2021/12/13 05:50:50;;;;;;;;;7.00;7.00;;;;;8.94;85.32;101824.69;5017212;28;45531;-78
2021/12/13 05:53:21;;;;;;;;;15.75;11.00;;;;;9.03;85.20;101840.59;5016920;28;45377;-77
2021/12/13 05:55:55;;;;;;;;;10.25;8.00;;;;;9.05;84.34;101836.19;4996263;28;45368;-78
2021/12/13 05:59:07;;;;;;;;;8.00;5.00;;;;;9.04;84.34;101833.56;4997051;28;45501;-77
2021/12/13 06:02:11;;;;;;;;;7.50;5.50;;;;;9.03;84.33;101837.06;4997918;28;45444;-78
2021/12/13 06:05:00;;;;;;;;;17.25;12.00;;;;;8.97;83.88;101831.75;4947951;28;45505;-78
2021/12/13 06:07:32;;;;;;;;;9.00;6.50;;;;;9.00;84.65;101840.56;4954933;28;45408;-77
2021/12/13 06:10:03;;;;;;;;;9.00;8.75;;;;;9.02;84.96;101841.47;4955075;28;45476;-78
2021/12/13 06:12:38;;;;;;;;;14.00;12.25;;;;;9.01;84.61;101833.53;4938114;28;45506;-76
2021/12/13 06:15:20;;;;;;;;;16.25;11.00;;;;;8.99;84.79;101835.28;4954529;28;45609;-77
2021/12/13 06:18:04;;;;;;;;;12.75;9.25;;;;;9.02;84.36;101841.47;4939004;28;45658;-77
2021/12/13 06:20:44;;;;;;;;;15.00;10.00;;;;;8.99;83.80;101843.19;4955468;28;45394;-77
2021/12/13 06:23:17;;;;;;;;;16.25;11.50;;;;;8.97;83.95;101845.81;4954651;28;45417;-77
2021/12/13 06:25:45;;;;;;;;;13.75;10.75;;;;;8.99;83.89;101845.84;4954979;28;45529;-77
2021/12/13 06:28:27;;;;;;;;;13.00;10.00;;;;;8.99;84.02;101849.34;4936191;28;45605;-77
2021/12/13 06:31:01;;;;;;;;;9.25;8.00;;;;;9.00;84.42;101852.84;4945248;28;45528;-77
2021/12/13 06:33:27;;;;;;;;;12.50;11.00;;;;;8.97;83.74;101840.53;4957040;28;45555;-79
2021/12/13 06:35:59;;;;;;;;;8.50;7.25;;;;;8.97;83.68;101845.81;4954122;28;45513;-77
2021/12/13 06:38:45;;;;;;;;;11.00;7.75;;;;;8.96;83.55;101844.06;4954342;28;45374;-76
2021/12/13 06:41:13;;;;;;;;;11.00;11.00;;;;;8.96;83.82;101848.44;4991479;28;46143;-77
2021/12/13 06:43:58;;;;;;;;;10.25;8.50;;;;;8.97;84.04;101853.72;5016548;28;45424;-77
2021/12/13 06:46:23;;;;;;;;;8.00;5.75;;;;;8.97;83.95;101856.34;5016307;28;45503;-78
2021/12/13 06:49:09;;;;;;;;;12.00;9.00;;;;;8.98;83.67;101851.97;5016410;28;45400;-77
2021/12/13 06:51:43;;;;;;;;;12.50;11.00;;;;;8.96;83.45;101858.97;5016995;28;46722;-77
2021/12/13 06:54:25;;;;;;;;;8.00;6.50;;;;;8.94;83.28;101855.47;5013686;28;45370;-77
2021/12/13 06:57:07;;;;;;;;;8.50;8.00;;;;;8.93;83.23;101856.31;5016114;28;45512;-77
2021/12/13 06:59:36;;;;;;;;;7.00;6.00;;;;;8.93;83.24;101859.84;5016724;28;45606;-77
2021/12/13 07:02:07;;;;;;;;;9.50;6.50;;;;;8.93;83.83;101854.59;5016721;28;45432;-76
2021/12/13 07:04:48;;;;;;;;;7.25;5.00;;;;;8.92;83.41;101852.81;5016530;28;45642;-76
2021/12/13 07:07:15;;;;;;;;;9.00;7.25;;;;;8.92;83.61;101858.09;4997824;28;45471;-78
2021/12/13 07:09:49;;;;;;;;;6.25;3.00;;;;;8.90;83.70;101849.28;5015985;28;45306;-80
2021/12/13 07:12:17;;;;;;;;;5.50;4.25;;;;;8.92;83.44;101857.22;5015530;28;46460;-77
2021/12/13 07:14:43;;;;;;;;;11.75;6.00;;;;;8.89;83.76;101837.84;5015867;28;45492;-77
2021/12/13 07:17:15;;;;;;;;;6.00;3.50;;;;;8.97;83.46;101853.72;5014026;28;45598;-77
2021/12/13 07:19:45;;;;;;;;;6.50;4.00;;;;;8.94;83.28;101845.78;5008305;28;45443;-77
2021/12/13 07:22:17;;;;;;;;;1.50;1.00;;;;;8.92;82.76;101837.00;5006890;28;46766;-77
2021/12/13 07:24:53;;;;;;;;;1.00;1.00;;;;;8.92;82.84;101831.72;5014443;28;45349;-76
2021/12/13 07:27:29;;;;;;;;;1.25;1.00;;;;;8.97;82.83;101844.94;5015064;28;45377;-76
2021/12/13 07:30:06;;;;;;;;;3.50;1.75;;;;;8.95;83.12;101844.91;5004765;28;45376;-77
2021/12/13 07:32:35;;;;;;;;;2.25;1.25;;;;;8.96;83.26;101838.78;5010178;28;46577;-76
2021/12/13 07:35:12;;;;;;;;;0.75;0.00;;;;;8.96;82.90;101841.41;5009876;28;45473;-78
2021/12/13 07:37:37;;;;;;;;;5.25;3.50;;;;;8.96;82.75;101844.06;5017612;28;45492;-77
2021/12/13 07:40:18;;;;;;;;;2.50;2.50;;;;;9.00;82.88;101855.50;5019521;28;45467;-77
2021/12/13 07:42:57;;;;;;;;;5.75;2.00;;;;;8.99;82.77;101854.63;5008657;28;45639;-78
2021/12/13 07:45:41;;;;;;;;;3.50;3.50;;;;;9.01;82.59;101860.78;5006079;28;45535;-77
2021/12/13 07:48:29;;;;;;;;;3.00;3.00;;;;;8.96;82.77;101844.06;5009120;28;45384;-77
2021/12/13 07:51:06;;;;;;;;;6.00;4.50;;;;;8.98;82.43;101863.41;5009950;28;45408;-77
2021/12/13 07:53:40;;;;;;;;;5.50;3.50;;;;;8.99;82.79;101862.53;5006557;28;46017;-77
2021/12/13 07:56:06;;;;;;;;;7.50;4.00;;;;;9.00;82.61;101850.22;5013425;28;45427;-77
2021/12/13 07:58:42;;;;;;;;;4.25;4.25;;;;;9.03;82.58;101855.50;5008029;28;45566;-77
2021/12/13 08:01:12;;;;;;;;;2.00;2.00;;;;;9.03;82.77;101859.06;5010985;28;45656;-77
2021/12/13 08:03:48;;;;;;;;;10.50;7.75;;;;;9.06;82.21;101853.81;5010981;28;46135;-77
2021/12/13 08:06:13;;;;;;;;;4.75;4.75;;;;;9.08;82.54;101848.53;5008790;28;45402;-78
2021/12/13 08:08:50;;;;;;;;;9.50;8.00;;;;;9.06;82.67;101845.88;5003636;28;45446;-76
2021/12/13 08:11:18;;;;;;;;;15.50;10.00;;;;;9.07;82.34;101852.91;5008312;28;45586;-77
2021/12/13 08:13:55;;;;;;;;;4.25;4.25;;;;;9.05;82.26;101854.66;5013966;28;45524;-77
2021/12/13 08:16:29;;;;;;;;;5.50;5.50;;;;;9.06;82.44;101856.44;5012594;28;45336;-76
2021/12/13 08:19:09;;;;;;;;;9.00;7.50;;;;;9.06;81.95;101867.00;5007132;28;45408;-77
2021/12/13 08:21:43;;;;;;;;;11.25;8.00;;;;;9.04;82.14;101862.56;5009712;28;45371;-76
2021/12/13 08:24:18;;;;;;;;;10.75;7.25;;;;;9.03;82.55;101866.97;5008400;28;46286;-77
2021/12/13 08:26:44;;;;;;;;;13.75;12.00;;;;;9.03;82.47;101866.97;4995849;28;45582;-78
2021/12/13 08:29:19;;;;;;;;;10.75;10.00;;;;;9.05;82.42;101859.94;5002704;28;45438;-75
2021/12/13 08:31:47;;;;;;;;;7.00;7.00;;;;;9.09;82.70;101865.22;5000024;28;45333;-76
2021/12/13 08:34:23;;;;;;;;;11.00;9.00;;;;;9.12;82.50;101862.63;4983454;28;46083;-76
2021/12/13 08:36:50;;;;;;;;;11.00;7.50;;;;;9.16;82.45;101864.41;5008556;28;45528;-76
2021/12/13 08:39:21;;;;;;;;;7.75;7.75;;;;;9.17;82.21;101867.06;5013545;28;45468;-77
2021/12/13 08:41:59;;;;;;;;;13.50;9.00;;;;;9.20;82.14;101867.06;5008634;28;45494;-77
2021/12/13 08:44:36;;;;;;;;;6.50;6.00;;;;;9.16;82.09;101861.78;5010138;28;46197;-77
2021/12/13 08:47:19;;;;;;;;;8.50;6.00;;;;;9.19;81.82;101867.94;5009308;28;45600;-77
2021/12/13 08:49:50;;;;;;;;;8.25;4.25;;;;;9.24;82.38;101875.88;5002021;28;45388;-77
2021/12/13 08:52:16;;;;;;;;;7.00;7.00;;;;;9.27;82.02;101881.16;5002137;28;45451;-75
2021/12/13 08:55:02;;;;;;;;;7.75;6.50;;;;;9.29;82.14;101871.50;5012396;28;45491;-75
2021/12/13 08:57:51;;;;;;;;;4.00;4.00;;;;;9.31;82.03;101875.06;5006274;28;45418;-75
2021/12/13 09:00:36;;;;;;;;;5.25;2.00;;;;;9.34;81.33;101877.72;4995199;28;45446;-77
2021/12/13 09:03:28;;;;;;;;;7.75;4.75;;;;;9.34;81.39;101867.16;5003051;28;45416;-77
2021/12/13 09:06:22;;;;;;;;;7.25;4.75;;;;;9.36;81.32;101881.22;5015661;28;45423;-76
2021/12/13 09:08:59;;;;;;;;;4.00;2.25;;;;;9.36;81.05;101881.22;5007000;28;45638;-76
2021/12/13 09:11:43;;;;;;;;;2.00;2.00;;;;;9.39;80.80;101886.53;5006885;28;45392;-77
2021/12/13 09:14:15;;;;;;;;;0.00;0.00;;;;;9.33;80.52;101891.75;5005983;28;45339;-76
2021/12/13 09:17:07;;;;;;;;;4.75;4.75;;;;;9.32;80.67;101883.84;4996734;28;46259;-76
2021/12/13 09:19:53;;;;;;;;;6.50;3.00;;;;;9.30;80.24;101885.59;5009793;28;45557;-76
2021/12/13 09:22:20;;;;;;;;;1.00;1.00;;;;;9.29;79.60;101889.09;5014689;28;45555;-75
2021/12/13 09:24:46;;;;;;;;;0.00;0.00;;;;;9.31;79.51;101893.53;4998935;28;45540;-76
2021/12/13 09:27:25;;;;;;;;;2.00;2.00;;;;;9.31;79.57;101892.66;5004720;28;46152;-77
2021/12/13 09:29:57;;;;;;;;;5.00;2.50;;;;;9.22;79.81;101888.19;5000950;28;45392;-77
2021/12/13 09:32:29;;;;;;;;;4.50;2.50;;;;;9.20;79.96;101892.56;5016622;28;45613;-76
2021/12/13 09:35:16;;;;;;;;;4.50;2.50;;;;;9.23;80.22;101901.38;5009571;28;45474;-76
2021/12/13 09:37:42;;;;;;;;;7.00;4.50;;;;;9.17;80.15;101905.72;5002286;28;45471;-76
2021/12/13 09:40:10;;;;;;;;;0.75;0.25;;;;;9.10;79.46;101901.28;5004156;28;45463;-76
2021/12/13 09:42:53;;;;;;;;;2.50;2.50;;;;;9.03;80.18;101903.91;5000258;28;45451;-76
2021/12/13 09:45:28;;;;;;;;;4.00;3.00;;;;;8.97;79.53;101898.53;5007502;28;45640;-76
2021/12/13 09:47:54;;;;;;;;;3.75;3.00;;;;;9.01;80.03;101894.19;5009005;28;46001;-77
2021/12/13 09:50:25;;;;;;;;;1.00;1.00;;;;;8.99;79.42;101891.53;5008730;28;45546;-75
2021/12/13 09:52:57;;;;;;;;;0.00;0.00;;;;;8.98;78.63;101892.41;5006337;28;45633;-75
2021/12/13 09:55:35;;;;;;;;;1.00;0.00;;;;;8.96;78.47;101891.53;5005324;28;45586;-75
2021/12/13 09:58:13;;;;;;;;;0.00;0.00;;;;;8.94;77.94;101897.66;5007112;28;45600;-76
2021/12/13 10:00:59;;;;;;;;;0.25;0.00;;;;;8.94;77.59;101897.66;5010370;28;45377;-75
2021/12/13 10:03:30;;;;;;;;;0.00;0.00;;;;;8.92;77.24;101909.94;5004756;28;45534;-76
2021/12/13 10:06:02;;;;;;;;;0.25;0.00;;;;;8.89;77.46;101905.53;4999269;28;45558;-75
2021/12/13 10:08:55;;;;;;;;;0.25;0.25;;;;;8.87;77.15;101905.50;4983079;28;47333;-76
2021/12/13 10:11:32;;;;;;;;;0.00;0.00;;;;;8.85;77.04;101909.00;5004201;28;45543;-76
2021/12/13 10:13:59;;;;;;;;;1.00;0.00;;;;;8.78;77.34;101913.34;5000577;28;45310;-76
2021/12/13 10:16:31;;;;;;;;;3.50;3.50;;;;;8.64;77.17;101902.69;5000290;28;45611;-75
2021/12/13 10:18:59;;;;;;;;;1.00;1.00;;;;;8.63;77.34;101910.56;5011934;28;46076;-76
2021/12/13 10:21:33;;;;;;;;;2.00;2.00;;;;;8.56;77.56;101899.06;5009161;28;45607;-76
2021/12/13 10:24:04;;;;;;;;;2.00;2.00;;;;;8.54;77.98;101899.06;5014567;28;45477;-76
2021/12/13 10:26:35;;;;;;;;;0.25;0.25;;;;;8.52;77.56;101889.41;4997421;28;45684;-76
2021/12/13 10:29:04;;;;;;;;;1.50;1.00;;;;;8.55;77.31;101886.78;5013718;28;46075;-76
2021/12/13 10:31:36;;;;;;;;;2.00;1.50;;;;;8.53;77.98;101881.50;5005366;28;45408;-75
2021/12/13 10:34:06;;;;;;;;;0.00;0.00;;;;;8.58;77.79;101889.44;5012240;28;45448;-73
2021/12/13 10:36:33;;;;;;;;;1.00;1.00;;;;;8.56;76.99;101887.66;4987168;28;45411;-74
2021/12/13 10:39:04;;;;;;;;;0.00;0.00;;;;;8.58;77.55;101878.91;5012571;28;45411;-75
2021/12/13 10:41:41;;;;;;;;;0.00;0.00;;;;;8.62;76.83;101877.16;5002554;28;45617;-75
2021/12/13 10:44:13;;;;;;;;;0.00;0.00;;;;;8.62;76.83;101888.59;4993501;28;45526;-75
2021/12/13 10:46:45;;;;;;;;;0.00;0.00;;;;;8.56;76.56;101888.53;4977608;28;45691;-76
2021/12/13 10:49:23;;;;;;;;;0.50;0.50;;;;;8.55;76.81;101889.44;4999570;28;46057;-75
2021/12/13 10:51:59;;;;;;;;;0.00;0.00;;;;;8.52;76.46;101892.91;5006714;28;45385;-74
2021/12/13 10:54:46;;;;;;;;;0.00;0.00;;;;;8.52;76.41;101889.41;5002336;28;45471;-75
2021/12/13 10:57:21;;;;;;;;;0.00;0.00;;;;;8.50;77.16;101884.13;4993529;28;45603;-76
2021/12/13 10:59:49;;;;;;;;;0.00;0.00;;;;;8.49;76.61;101887.59;5003358;28;45392;-76
2021/12/13 11:02:19;;;;;;;;;0.00;0.00;;;;;8.51;76.27;101883.22;4998521;28;45341;-76
2021/12/13 11:04:55;;;;;;;;;0.00;0.00;;;;;8.47;76.94;101875.28;5007429;28;45559;-76
2021/12/13 11:07:21;;;;;;;;;0.00;0.00;;;;;8.46;77.25;101887.59;4987112;28;45605;-76
2021/12/13 11:09:49;;;;;;;;;0.00;0.00;;;;;8.51;76.71;101883.22;5004899;28;46023;-76
2021/12/13 11:12:20;;;;;;;;;0.50;0.00;;;;;8.41;77.01;101877.81;5014060;28;45442;-76
2021/12/13 11:14:49;;;;;;;;;1.00;0.00;;;;;8.44;76.44;101880.53;5014879;28;45557;-76
2021/12/13 11:17:19;;;;;;;;;0.00;0.00;;;;;8.41;77.15;101876.09;5013730;28;45469;-77
2021/12/13 11:19:51;;;;;;;;;0.00;0.00;;;;;8.41;77.04;101869.91;5011560;28;45505;-77
2021/12/13 11:22:31;;;;;;;;;0.00;0.00;;;;;8.44;77.28;101880.53;4981730;28;45429;-75
2021/12/13 11:25:01;;;;;;;;;0.00;0.00;;;;;8.42;76.43;101876.97;5007888;28;45416;-82
2021/12/13 11:27:31;;;;;;;;;0.00;0.00;;;;;8.40;76.71;101879.59;4990304;28;45378;-81
2021/12/13 11:29:58;;;;;;;;;1.00;1.00;;;;;8.44;76.81;101877.88;4999994;28;45416;-81
2021/12/13 11:32:37;;;;;;;;;0.25;0.25;;;;;8.45;77.54;101879.66;5001997;28;45389;-80
2021/12/13 11:35:08;;;;;;;;;0.00;0.00;;;;;8.41;77.36;101875.19;4997623;28;45449;-82
2021/12/13 11:38:04;;;;;;;;;0.00;0.00;;;;;8.39;77.55;101872.53;5007062;28;45437;-82
2021/12/13 11:40:38;;;;;;;;;0.25;0.00;;;;;8.42;77.25;101874.34;5003544;28;45271;-81
2021/12/13 11:43:26;;;;;;;;;1.00;1.00;;;;;8.43;77.52;101869.06;5011190;28;45455;-80
2021/12/13 11:46:26;;;;;;;;;1.00;1.00;;;;;8.50;77.16;101865.66;5024098;28;45419;-81
2021/12/13 11:49:10;;;;;;;;;1.50;1.00;;;;;8.53;77.68;101870.06;5011833;28;45495;-81
2021/12/13 11:51:55;;;;;;;;;33.50;32.00;;;;;8.45;77.45;101866.47;5009128;28;47185;-81
2021/12/13 11:55:02;;;;;;;;;4.75;4.25;;;;;8.40;77.52;101868.19;5019122;28;45560;-81
2021/12/13 11:57:33;;;;;;;;;3.00;1.00;;;;;8.46;76.88;101863.88;4977438;28;45641;-82
2021/12/13 12:00:21;;;;;;;;;3.00;3.00;;;;;8.49;77.60;101860.38;4961364;28;45472;-81
2021/12/13 12:03:30;;;;;;;;;3.00;1.00;;;;;8.51;77.19;101851.59;4951078;28;45498;-82
2021/12/13 12:06:08;;;;;;;;;1.00;1.00;;;;;8.52;77.47;101848.09;4967723;28;45523;-81
2021/12/13 12:09:10;;;;;;;;;2.25;2.25;;;;;8.56;77.22;101834.97;4973402;28;45420;-81
2021/12/13 12:12:04;;;;;;;;;7.50;5.25;;;;;8.54;76.85;101819.13;4970747;28;45286;-81
2021/12/13 12:14:29;;;;;;;;;3.25;3.25;;;;;8.40;77.01;101804.94;4963401;28;46135;-81